Timeline UpdatesTrip UpdatesNews PostsPvt PostsTravel TipsAdmin PostsConv PostsFollowed PostsChat RequestsBlog PostsPNR Posts

Disclaimer
Search
 
 
Wed Sep 24, 2014 03:56:44 ISTHomeTrainsΣChainsAtlasPNRForumGalleryNewsFAQTripsMembersLoginFeedback
No Recent News for this Train
Other Trains in the News **new
Latest...
.
Fri Feb 28, 2014 (07:32PM)
⇐ Return Journey: Train# 19216

19215/Saurashtra Express

Time-Table HAS CHANGED.
Sep 03 (10:13PM)
Change Departure Station:
Change Arrival Station:
Post a Train Travel TipPost a Train Travel Tip **new
Post a Comment/Question/Picture/VideoPost a Comment/Question/Picture/Video
Pantry/Catering
✕ NO Pantry Car
✓ Catering Avbl
RSA - Rake Sharing
Rake/Coach Composition
ENG - SLR - GEN - GEN - GEN - FC1 - B1 - S4 - S3 - S2 - S1 - LD - GEN - RMS - GEN - GEN - GEN - SLR - Milk van
Loco
BCT-ADI: BRC WAP-4/ ADI-PBR: VTA WDM-3A
News    PNR    Forum    Time-Table    Availability    Fare Chart    Map    Arr/Dep History    Trips    Gallery    ΣChains    X/O    Timeline    
Travel Time: 5h 16m    20 halts    Distance: 259 km    Avg Speed: 49 km/hr
Type: Mail/Express
Zone: WR/Western
Departs @ 08:20 (Avg 1m late)
Platform# 3
SMTWTFS
Mumbai Central/BCT 
Arrives @ 13:36 (Avg 19m late)
Platform# 1
SMTWTFS
Udhna Junction/UDN 

20 halts. 56 intermediate Stations between Mumbai Central and Udhna Junction

Show ALL intermediate Stations  Show Old Time-Table

#CodeStation NameX/OArrivesAvgDepartsAvgHaltPFDay#KmSpeedElevZoneAddress
1BCTMumbai Central (9)»  -08:20+1310.0363mWRMumbai 400008, Maharashtra
2DDRMumbai Dadar Western (6)  08:30+408:32+42m315.9556mWRMumbai, Maharashtra
3BVIMumbai Borivali (8)X  09:00 08:58+709:02+82 4m4129.75019mWRMumbai - 400092, Maharashtra
4BSRVasai Road (7)  09:25 09:23+409:27+32 4m4147.1467mWRVasai 401202, Maharashtra
5VRVirar (8)  09:38+409:40+52m3155.5656mWRDist. Palghar, Maharashtra
6SAHSaphale (2)X  09:55+909:57+92m1171.8748mWRDist. Palghar, Maharashtra
7PLGPalghar (3)X  10:09+1010:11+102m--186.66819mWRPalghar, Maharashtra
8BORBoisar (3)X  10:21+1110:23+112m2197.96217mWRBoisar Tel.no-02525-266626, Maharashtra
9DRDDahanu Road (5)X  10:43 10:44+1010:45 10:46+102m--1119.67412mWRDahanu, Maharashtra
10GVDGholvad (4)X  10:55+1110:57+102m--1130.86914mWRGholvad, Maharashtra
11UBRUmbargam Road (3)  11:08 11:05+1011:10 11:07+92m11139.94030mWRUmbergaon, Gujarat
12SJNSanjan (3)X  11:19 11:15+911:21 11:17+92m--1145.37722mWRSanjan, Gujarat
13BLDBhilad (3)X11:34 11:26+711:36 11:29+72 3m--1156.96233mWRBhilad, Gujarat
14VAPIVapi (3)X  11:40+1111:42+122m11168.14827mWRVapi, Gujarat
15UVDUdvada (3)X  11:54+1111:56+112m--1177.76018mWRUdvada, Gujarat
16PADPardi (3)  12:02+1212:04+132m--1183.74319mWRValsad, Gujarat
17BLValsad (3)X  12:23 12:19+712:25 12:24+132 5m11194.46015mWRValsad, Gujarat
18BIMBilimora Junction (4)X  12:45 12:42+1012:47 12:44+102m11212.35611mWRBilimora, Gujarat
19AMLAmalsad (3)  12:53 12:50+1112:55 12:52+112m--1217.99412mWRAmalsad, Gujarat
20NVSNavsari (3)X  13:08 13:02+1313:10 13:07+142 5m11233.55114mWRNavsari, Gujarat
21MRLMaroli (3)X  13:21 13:17+1413:23 13:20+152 3m11241.96415mWRMaroli, Gujarat
22UDNUdhna Junction (3)•XO  13:40 13:36+1913:42 13:38+202m11259.1916mWRUdhna 394210, Gujarat
23STSurat (4)X  14:10 14:05+514:15+55 10m11263.15919mWRSurat 395001, Gujarat
24SYNSayan (3)  14:29+1814:31+172m--1276.88521mWRSayan Satellite town, Gujarat
25KIMKim (2)X  14:38+1914:40+192m--1286.75818mWRNH 8, Gujarat
26KSBKosamba Junction (3)X  14:48+2014:50+202m--1294.57130mWRKosamba, Gujarat
27PAOPanoli (3)  14:57+2114:59+202m--1302.76929mWRPanoli, Gujarat
28AKVAnkleshwar Junction (4)  15:08+2115:10+212m11313.04319mWRAnkleshwar, Gujarat
29BHBharuch Junction (5)  15:23+1915:25+192m31322.46619mWRBharuch, Gujarat
30NIUNabipur (3)X  15:36+2315:38+222m--1334.48024mWRNabipur, Gujarat
31PLJPalej (4)X  15:48+2415:50+232m--1347.88329mWRPalej, Gujarat
32MYGMiyagam Karjan (2)  16:01+2316:03+222m21363.07029mWRKarjan, Gujarat
33ITAItola (4)  16:13+2516:15+242m--1374.64827mWRNational Highway 8 Vadodara, Gujarat
34VSVishvamitri (4)XO  16:34+2616:36+272m--1389.9930mWRVadodara, Gujarat
35BRCVadodara Junction (7)X  16:55+1917:00+205m41392.95036mWRVadodara 390005, Gujarat
36VDAVasad Junction (3)X  17:24+2517:26+242m21413.15240mWRVasad, Gujarat
37ANNDAnand Junction (6)  17:44+2117:46+232m--1428.65644mWRAnand, Gujarat
38KBRVKanjari Boriyavi Junction (4)X  17:54+4717:56+472m--1436.15539mWRKanjari, Gujarat
39NDNadiad Junction (4)O  18:08+1718:10+182m--1447.15037mWRNadiad, Gujarat
40MHDMahemdavad Kheda Road (4)XO  18:31+3218:33+322m31464.65737mWRMahemdavad, Gujarat
41BJDBarejadi Nandej (3)O  18:45+4818:47+482m--1476.03542mWRBareja-Barejadi Rd, Gujarat
42MANManinagar (2)XO  19:21 19:10+019:23 19:12+02m11489.5750mWRAhmadabad, Gujarat
43ADIAhmedabad Junction (12)XO19:40+1520:00+2020m61492.61951mWRAhmedabad, Gujarat
44SBTSabarmati Junction (3) new halt!!  20:17+2220:19+232m--1498.03852mWRAhmedabad, Gujarat
45CLDYChandlodiya  20:28+2220:30+212m--1503.76859mWRAhmedabad, Gujarat
46ABDAmbli RoadX  20:35+2220:37+212m--1509.47050mWRAhmedabad, Gujarat
47SAUSanand  20:47+2420:49+242m--1521.05840mWRSanand, Gujarat
48CEChharodiX  21:00+2421:02+242m--1531.77029mWRSH 17, Gujarat
49JKAJakhvadaX  21:14+2521:16+252m--1545.63031mWRState Highway 17, Gujarat
50VGViramgam Junction (5)X  21:41+1521:43+162m11558.05129mWRViramgam, Gujarat
51SUNRSurendranagar Junction (4)  22:58 23:00+3023:00 23:05+302 5m11623.56872mWRSurendra Nagar, Gujarat
52THANThan Junction (3)  23:45 23:47+3223:47 23:49+332m11671.261138mWRThangadh, Gujarat
53WKRWankaner Junction (4)X  00:13 00:15+3500:15 00:20+362 5m--2697.84387mWRWankaner, Gujarat
54RJTRajkot Junction (5)X  01:18+1701:24+196m32739.665128mWRRajkot, Gujarat
55HAPAHapa (3)X  02:32 02:34+1502:34 02:36+162m--2815.54316mWRJamnagar, Gujarat
56JAMJamnagar (2)X  02:46 02:48+1402:48 02:53+142 5m--2824.15014mWRJamnagar, Gujarat
57LPJLalpur Jam  03:44 03:46+1903:46 03:47+192 1m--2868.25776mWRLalpur, Gujarat
58GOPGop Jam  04:03 04:05+2004:05 04:06+192 1m--2885.262126mWRState Highway 27, Gujarat
59BNVDBhanvad  04:22 04:24+2004:24 04:25+202 1m--2903.75755mWRBhanvad, Gujarat
60WSJWansjaliya  04:44+1904:45+201m--2921.96055mWRTarsai - Vansjaliya, Gujarat
61SKRSakhpur  04:50 04:52-04:52 04:53-2 1m--2928.93055mWRto railway station, Gujarat
62RWORanavav  05:18 05:20+1405:20 05:21+142 1m--2942.22837mWRRanavav, Gujarat
63PBRPorbandar  05:50+0-12955.5-7mWRPorbandar, Gujarat
Scroll to Top
Scroll to Bottom